Rome Urbe Air Force Base, Italy

8:46 AM CET on February 11, 2016 (GMT +0100)
IRMROMA12 | | Change Station
CLOSE
Current Station
Personal Weather Station
Location: Roma / Trieste-Salario, RM
Elevation: 148 ft
Nearby Weather Stations

Elev 148 ft 41.94 °N, 12.51 °E | Updated 1 minute ago

Light Rain
Light Rain
44.6 °F
Feels Like 43 °F
N
3.8
Wind Variable Wind from NW
Gusts 6.0 mph

Today
High -- | Low -- °F
--% Chance of Precip.
Yesterday
High -- | Low -- °F
Precip. -- in
Pressure 29.77 in
Visibility 4.3 miles
Clouds Few 1000 ft
Mostly Cloudy 2000 ft
Windchill 43 °F
Dew Point 41 °F
Humidity 88%
Rainfall 0.05 in
Snow Depth Not available.
7:12 AM 5:36 PM
Waxing Crescent, 10% visible
METAR LIRA 110720Z 01010KT 7000 -RA FEW010 BKN020 06/05 Q1008
Pressure 29.77 in
Visibility 4.3 miles
Clouds Few 1000 ft
Mostly Cloudy 2000 ft
Windchill 43 °F
Dew Point 41 °F
Humidity 88%
Rainfall 0.05 in
Snow Depth Not available.
7:12 AM 5:36 PM
Waxing Crescent, 10% visible
METAR LIRA 110720Z 01010KT 7000 -RA FEW010 BKN020 06/05 Q1008

10-Day Weather Forecast

Almanac

Astronomy

Feb. 11, 2016 Rise Set
Actual Time
Civil Twilight
Nautical Twilight
Astronomical Twilight
Moon
Length of Visible Light
Length of Day
Tomorrow will be .
, % of the Moon is Illuminated

Today's Extremes

Country Highs Country Lows

Community

WunderPhotos

Upload Photos

1,892,030 photos uploaded!

WunderBlog® & News

Nearby

Air Quality

  Air Quality AQ Index Pollutant
Not available.

Snow Depth

Station Depth Elevation

Earthquake Activity

City Distance Mag. Time & Date
Minimum magnitude displayed is 2.5.

Coastal Water Temperatures

Place Temperature

Stations

Nearby Weather Stations

Station Location Temp. Windchill Dew Point Humidity Wind Precip. Elev Updated Type